首页
METAR-TAF:

METAR-TAF

机场 :

安特衛普國際機場

安特卫普, 比利时

纬度: 51-12N, 经度: 004-28E, 海拔: 12米

当前天气观测

该预报发布于24分钟前的02:50 UTC
风速3节,风向
温度 12°C
湿度 67%
气压 1022 hPa
能见度10公里或以上
1500米以下无云,无积雨云

METAR: EBAW 010250Z AUTO 08003KT CAVOK 12/06 Q1022

时间: 05:14 (03:14 UTC)

预报

该预报发布于1小时和13分钟前的02:01 UTC
预报有效从01日的 03点(UTC)到 01日的 12点(UTC)
风速6节,风向东北
能见度10公里或以上
1500米以下无云,无积雨云

TAF: EBAW 010201Z 0103/0112 05006KT CAVOK

超过4000个机场的气象观测和天气预报(METAR&TAF报告)。

可查询的气象台以黄色和红色小点在地图上表示。

将鼠标移到小点上方,可查看气象台名称。

然后点击查看天气观测和预报。

如需切换地图:点击带黑十字的绿色按钮放大地图;点击带横线的绿色按钮缩小地图;或者点击绿色箭头查看邻近地区的地图。


METAR-TAF: